createdAt,value
2019-03-29T00:01:15.723Z,11.80
2019-03-29T00:03:44.178Z,11.80
2019-03-29T00:06:12.648Z,11.80
2019-03-29T00:08:41.104Z,11.80
2019-03-29T00:11:09.585Z,11.80
2019-03-29T00:13:38.192Z,11.80
2019-03-29T00:16:06.675Z,11.80
2019-03-29T00:18:35.966Z,11.80
2019-03-29T00:21:04.580Z,11.80
2019-03-29T00:23:33.051Z,11.80
2019-03-29T00:26:02.835Z,11.80
2019-03-29T00:28:31.287Z,11.80
2019-03-29T00:30:59.743Z,11.80
2019-03-29T00:33:28.191Z,11.80
2019-03-29T00:35:56.663Z,11.80
2019-03-29T00:38:25.141Z,11.80
2019-03-29T00:40:53.592Z,11.80
2019-03-29T00:43:22.050Z,11.80
2019-03-29T00:45:50.523Z,11.80
2019-03-29T00:48:18.987Z,11.70
2019-03-29T00:50:47.439Z,11.70
2019-03-29T00:53:15.897Z,11.80
2019-03-29T00:55:44.359Z,11.80
2019-03-29T00:58:12.815Z,11.70
2019-03-29T01:00:41.306Z,11.70
2019-03-29T01:03:10.870Z,11.80
2019-03-29T01:05:39.502Z,11.70
2019-03-29T01:08:10.295Z,11.70
2019-03-29T01:10:37.542Z,11.70
2019-03-29T01:13:06.000Z,11.80
2019-03-29T01:15:35.804Z,11.70
2019-03-29T01:18:03.938Z,11.70
2019-03-29T01:20:32.396Z,11.70
2019-03-29T01:23:00.864Z,11.70
2019-03-29T01:25:29.371Z,11.70
2019-03-29T01:27:57.990Z,11.70
2019-03-29T01:30:26.589Z,11.70
2019-03-29T01:32:55.167Z,11.70
2019-03-29T01:35:23.873Z,11.70
2019-03-29T01:37:52.396Z,11.60
2019-03-29T01:40:20.847Z,11.70
2019-03-29T01:42:49.305Z,11.70
2019-03-29T01:45:17.766Z,11.70
2019-03-29T01:47:46.224Z,11.70
2019-03-29T01:50:15.150Z,11.70
2019-03-29T01:52:43.610Z,11.70
2019-03-29T01:55:12.060Z,11.70
2019-03-29T01:57:40.516Z,11.70
2019-03-29T02:00:09.597Z,11.70
2019-03-29T02:02:38.336Z,11.70
2019-03-29T02:05:08.583Z,11.70
2019-03-29T02:07:37.993Z,11.70
2019-03-29T02:10:08.604Z,11.70
2019-03-29T02:12:36.556Z,11.70
2019-03-29T02:15:09.311Z,11.80
2019-03-29T02:17:38.150Z,11.70
2019-03-29T02:20:07.435Z,11.70
2019-03-29T02:22:36.296Z,11.70
2019-03-29T02:25:07.754Z,11.70
2019-03-29T02:27:36.215Z,11.70
2019-03-29T02:30:06.742Z,11.70
2019-03-29T02:32:35.248Z,11.70
2019-03-29T02:35:04.345Z,11.70
2019-03-29T02:37:32.835Z,11.70
2019-03-29T02:40:01.282Z,11.70
2019-03-29T02:42:29.738Z,11.70
2019-03-29T02:44:58.549Z,11.70
2019-03-29T02:47:27.063Z,11.70
2019-03-29T02:49:55.530Z,11.70
2019-03-29T02:52:23.983Z,11.70
2019-03-29T02:54:52.463Z,11.70
2019-03-29T02:57:20.926Z,11.70
2019-03-29T02:59:49.375Z,11.70
2019-03-29T03:02:17.818Z,11.80
2019-03-29T03:04:46.293Z,11.80
2019-03-29T03:07:14.844Z,11.80
2019-03-29T03:09:43.365Z,11.80
2019-03-29T03:12:11.896Z,11.80
2019-03-29T03:14:40.399Z,11.80
2019-03-29T03:17:08.853Z,11.80
2019-03-29T03:19:37.378Z,11.80
2019-03-29T03:22:05.876Z,11.80
2019-03-29T03:24:34.384Z,11.80
2019-03-29T03:27:02.850Z,11.80
2019-03-29T03:29:31.309Z,11.80
2019-03-29T03:31:59.762Z,11.80
2019-03-29T03:34:28.232Z,11.80
2019-03-29T03:36:56.705Z,11.90
2019-03-29T03:39:32.022Z,11.90
2019-03-29T03:41:55.345Z,11.90
2019-03-29T03:44:23.825Z,11.90
2019-03-29T03:46:52.338Z,11.90
2019-03-29T03:49:22.111Z,11.90
2019-03-29T03:51:50.548Z,11.90
2019-03-29T03:54:19.008Z,11.90
2019-03-29T03:56:49.144Z,11.90
2019-03-29T03:59:17.859Z,11.90
2019-03-29T04:01:46.945Z,11.90
2019-03-29T04:04:15.386Z,11.90
2019-03-29T04:06:44.132Z,11.90
2019-03-29T04:09:12.620Z,11.90
2019-03-29T04:11:41.159Z,11.90
2019-03-29T04:14:09.675Z,11.90
2019-03-29T04:16:38.125Z,11.90
2019-03-29T04:19:06.583Z,11.90
2019-03-29T04:21:35.038Z,11.90
2019-03-29T04:24:03.503Z,11.90
2019-03-29T04:26:32.033Z,11.90
2019-03-29T04:29:04.758Z,11.90
2019-03-29T04:31:30.656Z,11.90
2019-03-29T04:33:59.111Z,11.90
2019-03-29T04:36:27.645Z,11.90
2019-03-29T04:38:56.091Z,11.90
2019-03-29T04:41:24.621Z,11.90
2019-03-29T04:43:53.071Z,11.90
2019-03-29T04:46:21.542Z,11.90
2019-03-29T04:48:50.011Z,11.90
2019-03-29T04:51:18.471Z,11.90
2019-03-29T04:53:46.948Z,11.90
2019-03-29T04:56:15.411Z,11.90
2019-03-29T04:58:44.376Z,11.90
2019-03-29T05:01:12.900Z,11.90
2019-03-29T05:03:41.375Z,11.90
2019-03-29T05:06:09.820Z,11.90
2019-03-29T05:08:38.301Z,11.90
2019-03-29T05:11:06.823Z,12.00
2019-03-29T05:13:35.274Z,12.00
2019-03-29T05:16:05.007Z,12.00
2019-03-29T05:18:32.688Z,12.00
2019-03-29T05:21:01.139Z,12.00
2019-03-29T05:23:29.623Z,12.00
2019-03-29T05:25:58.163Z,12.00
2019-03-29T05:28:26.603Z,12.00
2019-03-29T05:30:55.261Z,12.00
2019-03-29T05:33:23.730Z,12.00
2019-03-29T05:35:52.185Z,12.00
2019-03-29T05:38:22.715Z,12.00
2019-03-29T05:40:51.167Z,12.00
2019-03-29T05:43:19.642Z,12.00
2019-03-29T05:45:48.648Z,12.00
2019-03-29T05:48:17.120Z,12.10
2019-03-29T05:50:45.580Z,12.00
2019-03-29T05:53:14.042Z,12.10
2019-03-29T05:55:42.500Z,12.10
2019-03-29T05:58:10.992Z,12.10
2019-03-29T06:00:39.511Z,12.10
2019-03-29T06:03:10.002Z,12.10
2019-03-29T06:05:38.244Z,12.10
2019-03-29T06:08:06.716Z,12.10
2019-03-29T06:10:47.925Z,12.20
2019-03-29T06:13:05.355Z,12.20
2019-03-29T06:15:33.815Z,12.20
2019-03-29T06:18:02.275Z,12.30
2019-03-29T06:20:30.775Z,12.20
2019-03-29T06:22:59.260Z,12.30
2019-03-29T06:25:27.712Z,12.30
2019-03-29T06:27:56.260Z,12.30
2019-03-29T06:30:30.983Z,12.30
2019-03-29T06:32:59.504Z,12.30
2019-03-29T06:35:31.028Z,12.30
2019-03-29T06:37:59.710Z,12.30
2019-03-29T06:40:28.169Z,12.30
2019-03-29T06:42:56.647Z,12.30
2019-03-29T06:45:25.112Z,12.40
2019-03-29T06:47:53.564Z,12.40
2019-03-29T06:50:22.053Z,12.40
2019-03-29T06:52:50.567Z,12.40
2019-03-29T06:55:19.024Z,12.40
2019-03-29T06:57:47.483Z,12.40
2019-03-29T07:00:16.540Z,12.40
2019-03-29T07:02:44.993Z,12.50
2019-03-29T07:05:13.499Z,12.50
2019-03-29T07:07:44.561Z,12.50
2019-03-29T07:10:12.220Z,12.60
2019-03-29T07:12:40.672Z,12.60
2019-03-29T07:15:09.396Z,12.60
2019-03-29T07:17:37.863Z,12.70
2019-03-29T07:20:07.347Z,12.70
2019-03-29T07:22:35.816Z,12.80
2019-03-29T07:25:06.786Z,12.80
2019-03-29T07:27:45.003Z,12.80
2019-03-29T07:30:06.874Z,12.90
2019-03-29T07:32:35.462Z,12.90
2019-03-29T07:35:05.755Z,13.00
2019-03-29T07:37:34.223Z,13.00
2019-03-29T07:40:05.689Z,13.10
2019-03-29T07:42:34.141Z,13.10
2019-03-29T07:45:02.593Z,13.10
2019-03-29T07:47:31.048Z,13.20
2019-03-29T07:49:59.498Z,13.20
2019-03-29T07:52:27.951Z,13.30
2019-03-29T07:54:56.410Z,13.30
2019-03-29T07:57:24.880Z,13.40
2019-03-29T07:59:53.323Z,13.40
2019-03-29T08:02:21.785Z,13.50
2019-03-29T08:04:51.134Z,13.50
2019-03-29T08:07:27.305Z,13.60
2019-03-29T08:09:49.949Z,13.60
2019-03-29T08:12:18.430Z,13.70
2019-03-29T08:14:46.958Z,13.80
2019-03-29T08:17:15.417Z,13.80
2019-03-29T08:19:43.931Z,13.80
2019-03-29T08:22:12.392Z,13.90
2019-03-29T08:24:40.862Z,14.00
2019-03-29T08:27:09.329Z,14.00
2019-03-29T08:29:37.787Z,14.10
2019-03-29T08:32:06.252Z,14.10
2019-03-29T08:34:36.026Z,14.20
2019-03-29T08:37:04.735Z,14.30
2019-03-29T08:39:33.187Z,14.40
2019-03-29T08:42:01.651Z,14.50
2019-03-29T08:44:30.115Z,14.50
2019-03-29T08:46:58.619Z,14.60
2019-03-29T08:49:27.071Z,14.70
2019-03-29T08:51:55.543Z,14.80
2019-03-29T08:54:24.033Z,15.00
2019-03-29T08:56:52.506Z,15.10
2019-03-29T08:59:21.028Z,15.20
2019-03-29T09:01:49.615Z,15.40
2019-03-29T09:04:21.485Z,15.50
2019-03-29T09:06:53.626Z,15.60
2019-03-29T09:09:17.767Z,15.80
2019-03-29T09:11:46.298Z,16.00
2019-03-29T09:14:14.785Z,16.20
2019-03-29T09:16:43.227Z,16.40
2019-03-29T09:19:11.705Z,16.80
2019-03-29T09:21:40.311Z,17.10
2019-03-29T09:24:21.160Z,17.40
2019-03-29T09:26:39.199Z,17.60
2019-03-29T09:29:07.658Z,17.80
2019-03-29T09:31:36.119Z,18.10
2019-03-29T09:34:04.578Z,18.30
2019-03-29T09:36:33.171Z,18.60
2019-03-29T09:39:01.748Z,18.90
2019-03-29T09:41:30.294Z,19.10
2019-03-29T09:43:58.808Z,19.30
2019-03-29T09:46:27.338Z,19.50
2019-03-29T09:48:55.849Z,19.70
2019-03-29T09:51:24.339Z,19.80
2019-03-29T09:53:52.821Z,19.90
2019-03-29T09:56:21.488Z,19.90
2019-03-29T09:58:50.000Z,19.90
2019-03-29T10:01:20.806Z,19.90
2019-03-29T10:03:48.656Z,19.80
2019-03-29T10:06:17.220Z,19.80
2019-03-29T10:08:45.686Z,19.80
2019-03-29T10:11:14.184Z,19.90
2019-03-29T10:13:42.724Z,20.00
2019-03-29T10:16:11.324Z,20.00
2019-03-29T10:18:39.975Z,20.10
2019-03-29T10:21:08.519Z,20.20
2019-03-29T10:23:36.964Z,20.20
2019-03-29T10:26:05.422Z,20.20
2019-03-29T10:28:33.898Z,20.20
2019-03-29T10:31:02.352Z,20.30
2019-03-29T10:33:30.819Z,20.30
2019-03-29T10:35:59.287Z,20.40
2019-03-29T10:38:27.743Z,20.50
2019-03-29T10:40:56.199Z,20.60
2019-03-29T10:43:24.735Z,20.70
2019-03-29T10:45:53.260Z,20.80
2019-03-29T10:48:21.781Z,20.80
2019-03-29T10:50:50.235Z,20.80
2019-03-29T10:53:18.727Z,20.80
2019-03-29T10:55:47.258Z,20.80
2019-03-29T10:58:15.735Z,20.70
2019-03-29T11:00:44.202Z,20.60
2019-03-29T11:03:12.660Z,20.50
2019-03-29T11:05:41.282Z,20.40
2019-03-29T11:08:11.662Z,20.40
2019-03-29T11:10:40.185Z,20.40
2019-03-29T11:13:13.121Z,20.40
2019-03-29T11:15:39.291Z,20.30
2019-03-29T11:18:08.219Z,20.30
2019-03-29T11:20:37.639Z,20.40
2019-03-29T11:23:06.850Z,20.40
2019-03-29T11:25:35.296Z,20.50
2019-03-29T11:28:04.168Z,20.60
2019-03-29T11:30:42.135Z,20.70
2019-03-29T11:33:02.885Z,20.80
2019-03-29T11:35:31.408Z,20.80
2019-03-29T11:37:59.867Z,20.80
2019-03-29T11:40:28.327Z,20.80
2019-03-29T11:42:56.821Z,20.80
2019-03-29T11:45:25.283Z,20.70
2019-03-29T11:48:07.255Z,20.80
2019-03-29T11:50:23.931Z,20.80
2019-03-29T11:52:52.395Z,20.90
2019-03-29T11:55:20.851Z,21.00
2019-03-29T11:57:49.309Z,21.10
2019-03-29T12:00:20.843Z,21.20
2019-03-29T12:02:49.304Z,21.20
2019-03-29T12:05:17.755Z,21.30
2019-03-29T12:07:46.227Z,21.30
2019-03-29T12:10:14.694Z,21.30
2019-03-29T12:12:43.172Z,21.40
2019-03-29T12:15:12.031Z,21.40
2019-03-29T12:17:40.508Z,21.50
2019-03-29T12:20:09.068Z,21.50
2019-03-29T12:22:37.511Z,21.50
2019-03-29T12:25:07.411Z,21.50
2019-03-29T12:27:35.861Z,21.60
2019-03-29T12:30:07.134Z,21.60
2019-03-29T12:32:35.605Z,21.70
2019-03-29T12:35:06.154Z,21.80
2019-03-29T12:37:34.610Z,21.90
2019-03-29T12:40:05.282Z,22.00
2019-03-29T12:42:33.736Z,22.00
2019-03-29T12:45:02.231Z,22.00
2019-03-29T12:47:30.757Z,21.90
2019-03-29T12:49:59.210Z,21.90
2019-03-29T12:52:27.715Z,21.80
2019-03-29T12:54:56.159Z,21.70
2019-03-29T12:57:24.619Z,21.70
2019-03-29T12:59:53.075Z,21.80
2019-03-29T13:02:21.523Z,21.80
2019-03-29T13:04:49.991Z,21.90
2019-03-29T13:07:18.451Z,22.00
2019-03-29T13:09:46.975Z,22.10
2019-03-29T13:12:15.426Z,22.10
2019-03-29T13:14:43.946Z,22.10
2019-03-29T13:17:12.661Z,22.20
2019-03-29T13:19:41.124Z,22.20
2019-03-29T13:22:10.020Z,22.20
2019-03-29T13:24:38.487Z,22.10
2019-03-29T13:27:06.961Z,22.00
2019-03-29T13:29:35.440Z,21.90
2019-03-29T13:32:04.072Z,21.80
2019-03-29T13:34:32.519Z,21.70
2019-03-29T13:37:01.050Z,21.60
2019-03-29T13:39:29.503Z,21.60
2019-03-29T13:41:57.979Z,21.60
2019-03-29T13:44:28.286Z,21.50
2019-03-29T13:46:56.638Z,21.50
2019-03-29T13:49:25.111Z,21.60
2019-03-29T13:51:53.558Z,21.60
2019-03-29T13:54:22.024Z,21.60
2019-03-29T13:56:50.484Z,21.50
2019-03-29T13:59:18.931Z,21.40
2019-03-29T14:01:47.387Z,21.30
2019-03-29T14:04:15.846Z,21.30
2019-03-29T14:06:44.743Z,21.20
2019-03-29T14:09:13.195Z,21.30
2019-03-29T14:11:41.643Z,21.30
2019-03-29T14:14:10.091Z,21.30
2019-03-29T14:16:38.589Z,21.30
2019-03-29T14:19:07.111Z,21.20
2019-03-29T14:21:35.560Z,21.20
2019-03-29T14:24:04.035Z,21.20
2019-03-29T14:26:32.483Z,21.10
2019-03-29T14:29:00.945Z,21.10
2019-03-29T14:31:29.423Z,21.10
2019-03-29T14:33:57.868Z,21.10
2019-03-29T14:36:26.483Z,21.10
2019-03-29T14:38:54.948Z,21.10
2019-03-29T14:41:23.401Z,21.10
2019-03-29T14:43:51.858Z,21.10
2019-03-29T14:46:20.321Z,21.10
2019-03-29T14:48:48.971Z,21.20
2019-03-29T14:51:17.430Z,21.30
2019-03-29T14:53:45.877Z,21.30
2019-03-29T14:56:14.420Z,21.30
2019-03-29T14:58:42.863Z,21.30
2019-03-29T15:01:12.419Z,21.30
2019-03-29T15:03:40.879Z,21.30
2019-03-29T15:06:09.402Z,21.30
2019-03-29T15:08:37.972Z,21.20
2019-03-29T15:11:06.519Z,21.20
2019-03-29T15:13:34.967Z,21.20
2019-03-29T15:16:03.415Z,21.20
2019-03-29T15:18:31.909Z,21.30
2019-03-29T15:21:00.363Z,21.30
2019-03-29T15:23:28.887Z,21.30
2019-03-29T15:25:57.340Z,21.20
2019-03-29T15:28:25.823Z,21.20
2019-03-29T15:30:54.309Z,21.20
2019-03-29T15:33:22.964Z,21.20
2019-03-29T15:35:51.430Z,21.20
2019-03-29T15:38:19.880Z,21.20
2019-03-29T15:40:48.345Z,21.10
2019-03-29T15:43:16.935Z,21.10
2019-03-29T15:45:45.400Z,21.10
2019-03-29T15:48:13.871Z,21.10
2019-03-29T15:50:42.424Z,21.00
2019-03-29T15:53:11.050Z,21.00
2019-03-29T15:55:39.514Z,21.00
2019-03-29T15:58:08.145Z,21.00
2019-03-29T16:00:36.598Z,21.00
2019-03-29T16:03:05.071Z,20.90
2019-03-29T16:05:33.537Z,20.80
2019-03-29T16:08:02.003Z,20.70
2019-03-29T16:10:30.455Z,20.60
2019-03-29T16:12:58.895Z,20.50
2019-03-29T16:15:34.213Z,20.40
2019-03-29T16:17:58.320Z,20.30
2019-03-29T16:20:26.805Z,20.30
2019-03-29T16:22:55.359Z,20.20
2019-03-29T16:25:23.828Z,20.10
2019-03-29T16:27:52.295Z,20.00
2019-03-29T16:30:20.921Z,19.90
2019-03-29T16:32:49.386Z,19.80
2019-03-29T16:35:17.863Z,19.80
2019-03-29T16:37:56.644Z,19.70
2019-03-29T16:40:16.536Z,19.60
2019-03-29T16:42:45.018Z,19.60
2019-03-29T16:45:13.531Z,19.50
2019-03-29T16:47:41.987Z,19.40
2019-03-29T16:50:10.671Z,19.30
2019-03-29T16:52:39.164Z,19.30
2019-03-29T16:55:13.561Z,19.20
2019-03-29T16:57:38.804Z,19.10
2019-03-29T17:00:12.649Z,19.00
2019-03-29T17:02:41.431Z,18.80
2019-03-29T17:05:11.666Z,18.70
2019-03-29T17:07:40.210Z,18.50
2019-03-29T17:10:09.315Z,18.40
2019-03-29T17:12:37.845Z,18.20
2019-03-29T17:15:07.041Z,18.10
2019-03-29T17:17:35.968Z,17.90
2019-03-29T17:20:08.791Z,17.80
2019-03-29T17:22:37.364Z,17.70
2019-03-29T17:25:07.316Z,17.50
2019-03-29T17:27:35.844Z,17.40
2019-03-29T17:30:06.447Z,17.20
2019-03-29T17:32:34.899Z,17.10
2019-03-29T17:35:03.991Z,17.00
2019-03-29T17:37:32.455Z,16.80
2019-03-29T17:40:00.940Z,16.70
2019-03-29T17:42:29.416Z,16.60
2019-03-29T17:44:59.058Z,16.40
2019-03-29T17:47:27.727Z,16.30
2019-03-29T17:49:56.177Z,16.10
2019-03-29T17:52:24.645Z,16.00
2019-03-29T17:54:55.020Z,15.80
2019-03-29T17:57:23.798Z,15.70
2019-03-29T17:59:55.172Z,15.60
2019-03-29T18:02:23.804Z,15.40
2019-03-29T18:04:52.262Z,15.20
2019-03-29T18:07:20.727Z,15.10
2019-03-29T18:09:49.180Z,14.90
2019-03-29T18:12:17.666Z,14.80
2019-03-29T18:14:46.180Z,14.60
2019-03-29T18:17:14.661Z,14.50
2019-03-29T18:19:43.104Z,14.40
2019-03-29T18:22:11.577Z,14.20
2019-03-29T18:24:40.043Z,14.10
2019-03-29T18:27:08.500Z,14.00
2019-03-29T18:29:36.947Z,13.90
2019-03-29T18:32:05.482Z,13.70
2019-03-29T18:34:34.698Z,13.60
2019-03-29T18:37:04.019Z,13.50
2019-03-29T18:39:33.011Z,13.40
2019-03-29T18:42:01.503Z,13.30
2019-03-29T18:44:29.959Z,13.20
2019-03-29T18:46:58.426Z,13.10
2019-03-29T18:49:26.888Z,13.10
2019-03-29T18:51:55.359Z,13.00
2019-03-29T18:54:23.829Z,13.00
2019-03-29T18:56:52.272Z,12.90
2019-03-29T18:59:20.739Z,12.90
2019-03-29T19:01:49.199Z,12.80
2019-03-29T19:04:17.676Z,12.80
2019-03-29T19:06:46.179Z,12.80
2019-03-29T19:09:14.638Z,12.70
2019-03-29T19:11:43.081Z,12.60
2019-03-29T19:14:11.580Z,12.50
2019-03-29T19:16:40.092Z,12.50
2019-03-29T19:19:10.335Z,12.40
2019-03-29T19:21:38.745Z,12.30
2019-03-29T19:24:07.309Z,12.20
2019-03-29T19:26:35.759Z,12.10
2019-03-29T19:29:04.289Z,12.00
2019-03-29T19:31:32.743Z,11.90
2019-03-29T19:34:01.202Z,11.80
2019-03-29T19:36:29.727Z,11.70
2019-03-29T19:38:58.180Z,11.70
2019-03-29T19:41:26.637Z,11.50
2019-03-29T19:43:55.095Z,11.50
2019-03-29T19:46:23.562Z,11.40
2019-03-29T19:48:52.068Z,11.30
2019-03-29T19:51:20.527Z,11.20
2019-03-29T19:53:49.015Z,11.20
2019-03-29T19:56:21.829Z,11.10
2019-03-29T19:58:50.361Z,11.10
2019-03-29T20:01:18.883Z,11.00
2019-03-29T20:03:47.349Z,10.90
2019-03-29T20:06:15.866Z,10.90
2019-03-29T20:08:44.330Z,10.90
2019-03-29T20:11:12.788Z,10.80
2019-03-29T20:13:41.256Z,10.80
2019-03-29T20:16:09.796Z,10.70
2019-03-29T20:18:38.251Z,10.70
2019-03-29T20:21:06.716Z,10.60
2019-03-29T20:23:35.171Z,10.60
2019-03-29T20:26:03.706Z,10.50
2019-03-29T20:28:32.168Z,10.50
2019-03-29T20:31:00.907Z,10.40
2019-03-29T20:33:29.442Z,10.40
2019-03-29T20:35:57.910Z,10.30
2019-03-29T20:38:26.376Z,10.30
2019-03-29T20:40:54.905Z,10.20
2019-03-29T20:43:23.392Z,10.20
2019-03-29T20:45:51.845Z,10.20
2019-03-29T20:48:20.320Z,10.10
2019-03-29T20:50:48.771Z,10.10
2019-03-29T20:53:17.227Z,10.10
2019-03-29T20:55:45.695Z,10.10
2019-03-29T20:58:14.157Z,10.00
2019-03-29T21:00:42.616Z,10.00
2019-03-29T21:03:11.069Z,9.90
2019-03-29T21:05:39.514Z,9.80
2019-03-29T21:08:07.959Z,9.80
2019-03-29T21:10:36.435Z,9.70
2019-03-29T21:13:07.156Z,9.70
2019-03-29T21:15:35.143Z,9.60
2019-03-29T21:18:03.584Z,9.60
2019-03-29T21:20:32.403Z,9.50
2019-03-29T21:23:00.867Z,9.40
2019-03-29T21:25:29.311Z,9.40
2019-03-29T21:27:57.809Z,9.40
2019-03-29T21:30:26.347Z,9.30
2019-03-29T21:32:54.825Z,9.30
2019-03-29T21:35:23.312Z,9.20
2019-03-29T21:37:51.827Z,9.10
2019-03-29T21:40:20.305Z,9.10
2019-03-29T21:42:48.756Z,9.00
2019-03-29T21:45:28.153Z,9.00
2019-03-29T21:48:01.468Z,8.90
2019-03-29T21:50:17.967Z,8.80
2019-03-29T21:52:46.448Z,8.80
2019-03-29T21:55:14.904Z,8.70
2019-03-29T21:57:43.365Z,8.70
2019-03-29T22:00:12.633Z,8.70
2019-03-29T22:02:41.100Z,8.60
2019-03-29T22:05:10.546Z,8.60
2019-03-29T22:07:39.322Z,8.50
2019-03-29T22:10:11.757Z,8.50
2019-03-29T22:12:43.061Z,8.50
2019-03-29T22:15:10.715Z,8.40
2019-03-29T22:17:39.171Z,8.40
2019-03-29T22:20:08.655Z,8.40
2019-03-29T22:22:37.473Z,8.30
2019-03-29T22:25:08.028Z,8.30
2019-03-29T22:27:36.481Z,8.20
2019-03-29T22:30:09.146Z,8.20
2019-03-29T22:32:37.605Z,8.10
2019-03-29T22:35:07.314Z,8.10
2019-03-29T22:37:35.834Z,8.10
2019-03-29T22:40:06.635Z,8.00
2019-03-29T22:42:35.140Z,8.00
2019-03-29T22:45:05.228Z,7.90
2019-03-29T22:47:33.681Z,7.90
2019-03-29T22:50:02.156Z,7.90
2019-03-29T22:52:30.702Z,7.80
2019-03-29T22:54:59.159Z,7.80
2019-03-29T22:57:27.611Z,7.80
2019-03-29T22:59:56.069Z,7.70
2019-03-29T23:02:24.584Z,7.60
2019-03-29T23:04:53.040Z,7.60
2019-03-29T23:07:21.497Z,7.60
2019-03-29T23:09:49.947Z,7.60
2019-03-29T23:12:18.404Z,7.50
2019-03-29T23:14:47.172Z,7.50
2019-03-29T23:17:15.636Z,7.40
2019-03-29T23:19:44.114Z,7.40
2019-03-29T23:22:12.644Z,7.40
2019-03-29T23:24:41.093Z,7.30
2019-03-29T23:27:09.554Z,7.30
2019-03-29T23:29:37.995Z,7.30
2019-03-29T23:32:06.516Z,7.30
2019-03-29T23:34:34.947Z,7.30
2019-03-29T23:37:03.405Z,7.20
2019-03-29T23:39:31.854Z,7.20
2019-03-29T23:42:00.339Z,7.20
2019-03-29T23:44:28.792Z,7.20
2019-03-29T23:46:57.236Z,7.10
2019-03-29T23:49:25.690Z,7.10
2019-03-29T23:51:54.163Z,7.10
2019-03-29T23:54:22.623Z,7.10
2019-03-29T23:56:51.080Z,7.10
2019-03-29T23:59:19.531Z,7.00
